createdAt,value
2022-08-17T00:02:26.399Z,21.21
2022-08-17T00:04:55.077Z,21.12
2022-08-17T00:07:23.071Z,21.13
2022-08-17T00:09:50.781Z,21.13
2022-08-17T00:12:41.694Z,21.12
2022-08-17T00:15:10.652Z,21.19
2022-08-17T00:17:38.990Z,21.23
2022-08-17T00:20:07.487Z,21.22
2022-08-17T00:22:36.629Z,21.21
2022-08-17T00:25:07.194Z,21.11
2022-08-17T00:27:36.850Z,21.10
2022-08-17T00:30:07.968Z,21.02
2022-08-17T00:33:23.465Z,20.96
2022-08-17T00:35:28.602Z,20.86
2022-08-17T00:37:56.330Z,20.84
2022-08-17T00:40:24.746Z,20.88
2022-08-17T00:42:54.175Z,20.85
2022-08-17T00:45:23.082Z,20.81
2022-08-17T00:47:50.661Z,20.84
2022-08-17T00:50:20.578Z,20.80
2022-08-17T00:52:55.935Z,20.79
2022-08-17T00:55:25.294Z,20.88
2022-08-17T00:57:58.374Z,20.90
2022-08-17T01:00:28.898Z,20.85
2022-08-17T01:02:59.879Z,20.83
2022-08-17T01:05:31.831Z,20.78
2022-08-17T01:08:01.217Z,20.78
2022-08-17T01:10:58.625Z,20.69
2022-08-17T01:13:24.502Z,20.72
2022-08-17T01:15:57.740Z,20.88
2022-08-17T01:18:27.145Z,20.75
2022-08-17T01:20:57.518Z,20.72
2022-08-17T01:23:27.494Z,20.67
2022-08-17T01:25:58.458Z,20.67
2022-08-17T01:28:53.040Z,20.62
2022-08-17T01:31:16.098Z,20.72
2022-08-17T01:33:43.790Z,20.73
2022-08-17T01:36:11.561Z,20.68
2022-08-17T01:38:41.336Z,20.61
2022-08-17T01:41:12.215Z,20.63
2022-08-17T01:43:45.005Z,20.59
2022-08-17T01:46:16.652Z,20.46
2022-08-17T01:48:47.384Z,20.39
2022-08-17T01:51:16.440Z,20.53
2022-08-17T01:53:51.564Z,20.47
2022-08-17T01:56:23.021Z,20.62
2022-08-17T01:58:50.601Z,20.53
2022-08-17T02:01:20.236Z,20.43
2022-08-17T02:03:56.113Z,20.35
2022-08-17T02:06:28.931Z,20.34
2022-08-17T02:09:03.111Z,20.36
2022-08-17T02:11:33.206Z,20.29
2022-08-17T02:14:03.176Z,20.28
2022-08-17T02:16:37.677Z,20.13
2022-08-17T02:19:08.351Z,20.11
2022-08-17T02:21:36.985Z,20.17
2022-08-17T02:24:09.244Z,20.28
2022-08-17T02:26:37.064Z,20.19
2022-08-17T02:29:05.075Z,20.20
2022-08-17T02:31:33.170Z,20.10
2022-08-17T02:34:04.554Z,20.06
2022-08-17T02:36:33.748Z,20.04
2022-08-17T02:39:01.951Z,19.98
2022-08-17T02:41:31.223Z,19.91
2022-08-17T02:43:58.867Z,19.88
2022-08-17T02:46:26.651Z,19.89
2022-08-17T02:48:54.297Z,19.89
2022-08-17T02:51:21.905Z,19.90
2022-08-17T02:53:49.585Z,19.84
2022-08-17T02:56:17.300Z,19.85
2022-08-17T02:58:46.360Z,19.87
2022-08-17T03:01:14.297Z,19.90
2022-08-17T03:03:42.318Z,19.84
2022-08-17T03:06:10.640Z,19.91
2022-08-17T03:08:38.510Z,19.91
2022-08-17T03:11:06.227Z,19.97
2022-08-17T03:13:34.039Z,19.97
2022-08-17T03:16:04.112Z,19.97
2022-08-17T03:18:31.884Z,19.97
2022-08-17T03:21:01.727Z,19.96
2022-08-17T03:23:30.288Z,19.94
2022-08-17T03:25:58.302Z,19.92
2022-08-17T03:28:27.752Z,19.92
2022-08-17T03:30:55.419Z,19.88
2022-08-17T03:33:24.413Z,19.87
2022-08-17T03:35:52.173Z,19.83
2022-08-17T03:38:19.920Z,19.83
2022-08-17T03:40:56.879Z,19.97
2022-08-17T03:43:28.399Z,19.92
2022-08-17T03:46:28.042Z,19.81
2022-08-17T03:49:19.260Z,19.84
2022-08-17T03:52:04.421Z,19.78
2022-08-17T03:54:49.701Z,19.81
2022-08-17T03:57:17.296Z,19.87
2022-08-17T03:59:45.287Z,19.91
2022-08-17T04:02:18.729Z,19.94
2022-08-17T04:04:50.596Z,19.91
2022-08-17T04:07:18.430Z,19.90
2022-08-17T04:09:46.048Z,19.87
2022-08-17T04:12:16.425Z,19.92
2022-08-17T04:14:52.626Z,19.97
2022-08-17T04:17:23.279Z,19.92
2022-08-17T04:19:52.553Z,19.89
2022-08-17T04:22:32.789Z,19.81
2022-08-17T04:25:07.974Z,19.84
2022-08-17T04:27:35.804Z,19.76
2022-08-17T04:30:03.605Z,19.79
2022-08-17T04:32:59.337Z,19.81
2022-08-17T04:35:22.120Z,19.78
2022-08-17T04:37:49.894Z,19.76
2022-08-17T04:40:36.430Z,19.81
2022-08-17T04:43:07.063Z,19.88
2022-08-17T04:45:34.955Z,19.98
2022-08-17T04:48:02.827Z,20.08
2022-08-17T04:50:31.888Z,20.14
2022-08-17T04:52:59.824Z,20.22
2022-08-17T04:55:27.602Z,20.28
2022-08-17T04:57:55.445Z,20.30
2022-08-17T05:00:25.702Z,20.28
2022-08-17T05:02:55.057Z,20.41
2022-08-17T05:05:24.544Z,20.40
2022-08-17T05:07:54.462Z,20.35
2022-08-17T05:10:22.510Z,20.38
2022-08-17T05:12:58.582Z,20.38
2022-08-17T05:15:26.513Z,20.40
2022-08-17T05:17:54.497Z,20.45
2022-08-17T05:20:23.085Z,20.56
2022-08-17T05:22:54.599Z,20.65
2022-08-17T05:25:24.995Z,20.74
2022-08-17T05:27:54.160Z,20.94
2022-08-17T05:30:22.631Z,21.16
2022-08-17T05:32:55.327Z,21.43
2022-08-17T05:35:23.959Z,21.76
2022-08-17T05:37:53.699Z,22.23
2022-08-17T05:40:25.958Z,22.50
2022-08-17T05:43:04.171Z,23.13
2022-08-17T05:45:55.362Z,23.35
2022-08-17T05:48:20.972Z,23.74
2022-08-17T05:51:13.371Z,23.89
2022-08-17T05:53:54.887Z,23.38
2022-08-17T05:56:33.778Z,23.00
2022-08-17T05:59:09.554Z,23.06
2022-08-17T06:01:49.706Z,23.03
2022-08-17T06:04:27.756Z,23.03
2022-08-17T06:07:02.816Z,22.94
2022-08-17T06:09:40.478Z,22.95
2022-08-17T06:12:26.232Z,22.97
2022-08-17T06:15:19.408Z,23.17
2022-08-17T06:17:47.633Z,23.30
2022-08-17T06:20:17.108Z,23.22
2022-08-17T06:22:50.444Z,23.07
2022-08-17T06:25:24.403Z,22.55
2022-08-17T06:27:57.073Z,22.53
2022-08-17T06:30:27.596Z,22.81
2022-08-17T06:33:05.705Z,22.45
2022-08-17T06:35:43.780Z,22.83
2022-08-17T06:38:37.178Z,22.67
2022-08-17T06:41:16.602Z,22.50
2022-08-17T06:43:56.639Z,22.56
2022-08-17T06:46:35.786Z,22.55
2022-08-17T06:49:14.818Z,22.08
2022-08-17T06:51:46.401Z,22.28
2022-08-17T06:54:18.876Z,22.53
2022-08-17T06:56:55.206Z,22.67
2022-08-17T06:59:55.000Z,22.89
2022-08-17T07:02:52.363Z,23.20
2022-08-17T07:05:24.780Z,23.36
2022-08-17T07:08:04.309Z,23.48
2022-08-17T07:10:45.530Z,23.94
2022-08-17T07:13:51.099Z,24.12
2022-08-17T07:16:24.790Z,23.93
2022-08-17T07:18:54.798Z,23.64
2022-08-17T07:21:41.217Z,23.40
2022-08-17T07:24:29.701Z,23.08
2022-08-17T07:27:13.602Z,22.86
2022-08-17T07:29:47.647Z,23.01
2022-08-17T07:32:19.032Z,23.07
2022-08-17T07:35:15.224Z,23.58
2022-08-17T07:37:46.760Z,23.95
2022-08-17T07:40:27.904Z,23.65
2022-08-17T07:43:07.667Z,23.93
2022-08-17T07:46:12.226Z,23.46
2022-08-17T07:48:43.046Z,23.63
2022-08-17T07:51:20.200Z,23.73
2022-08-17T07:53:48.234Z,24.19
2022-08-17T07:56:36.176Z,24.43
2022-08-17T07:59:18.361Z,24.48
2022-08-17T08:02:08.071Z,24.88
2022-08-17T08:04:59.781Z,24.94
2022-08-17T08:07:34.739Z,25.14
2022-08-17T08:10:09.035Z,24.57
2022-08-17T08:12:39.426Z,24.56
2022-08-17T08:15:18.625Z,24.32
2022-08-17T08:17:51.805Z,24.52
2022-08-17T08:20:34.982Z,24.56
2022-08-17T08:23:20.995Z,24.51
2022-08-17T08:25:59.447Z,23.81
2022-08-17T08:28:34.918Z,23.85
2022-08-17T08:31:08.071Z,24.05
2022-08-17T08:33:49.837Z,24.21
2022-08-17T08:37:14.260Z,24.44
2022-08-17T08:39:33.916Z,24.57
2022-08-17T08:42:12.561Z,24.61
2022-08-17T08:44:59.737Z,24.68
2022-08-17T08:47:48.413Z,24.61
2022-08-17T08:50:37.808Z,24.46
2022-08-17T08:53:28.540Z,24.62
2022-08-17T08:56:04.518Z,24.52
2022-08-17T08:58:42.612Z,24.62
2022-08-17T09:01:19.286Z,24.56
2022-08-17T09:04:21.385Z,24.47
2022-08-17T09:07:05.377Z,24.59
2022-08-17T09:09:44.105Z,24.52
2022-08-17T09:12:21.218Z,24.67
2022-08-17T09:15:01.230Z,24.77
2022-08-17T09:17:40.060Z,24.67
2022-08-17T09:20:27.338Z,24.86
2022-08-17T09:23:03.992Z,24.99
2022-08-17T09:25:36.067Z,25.15
2022-08-17T09:28:07.670Z,25.28
2022-08-17T09:30:42.155Z,25.43
2022-08-17T09:33:12.518Z,25.65
2022-08-17T09:35:45.351Z,25.68
2022-08-17T09:38:23.432Z,25.77
2022-08-17T09:40:56.609Z,26.10
2022-08-17T09:43:35.216Z,26.58
2022-08-17T09:46:08.913Z,26.53
2022-08-17T09:48:41.552Z,26.71
2022-08-17T09:51:14.487Z,26.64
2022-08-17T09:53:44.827Z,27.04
2022-08-17T09:56:35.823Z,27.33
2022-08-17T09:59:18.166Z,27.41
2022-08-17T10:01:52.683Z,27.29
2022-08-17T10:04:33.201Z,27.41
2022-08-17T10:07:08.065Z,27.56
2022-08-17T10:09:49.540Z,27.63
2022-08-17T10:12:30.232Z,27.54
2022-08-17T10:15:13.402Z,28.16
2022-08-17T10:17:53.962Z,28.08
2022-08-17T10:20:26.871Z,28.06
2022-08-17T10:23:17.663Z,28.58
2022-08-17T10:26:08.873Z,28.33
2022-08-17T10:28:43.513Z,28.05
2022-08-17T10:31:34.212Z,28.38
2022-08-17T10:34:19.872Z,28.76
2022-08-17T10:36:55.247Z,28.61
2022-08-17T10:39:31.926Z,28.86
2022-08-17T10:42:16.336Z,28.46
2022-08-17T10:45:06.356Z,28.79
2022-08-17T10:48:04.689Z,28.53
2022-08-17T10:50:50.312Z,28.29
2022-08-17T10:53:53.100Z,28.18
2022-08-17T10:56:40.299Z,28.71
2022-08-17T10:59:09.828Z,28.90
2022-08-17T11:01:58.286Z,29.20
2022-08-17T11:04:43.112Z,28.58
2022-08-17T11:07:18.797Z,28.84
2022-08-17T11:10:06.876Z,28.35
2022-08-17T11:12:42.356Z,28.20
2022-08-17T11:15:26.790Z,27.59
2022-08-17T11:18:37.182Z,27.38
2022-08-17T11:21:18.446Z,27.38
2022-08-17T11:24:03.759Z,27.03
2022-08-17T11:26:34.490Z,26.95
2022-08-17T11:29:05.134Z,26.79
2022-08-17T11:31:39.879Z,26.84
2022-08-17T11:34:15.089Z,26.97
2022-08-17T11:37:05.117Z,26.98
2022-08-17T11:39:46.941Z,27.48
2022-08-17T11:42:34.702Z,27.59
2022-08-17T11:45:32.566Z,27.98
2022-08-17T11:48:31.031Z,28.72
2022-08-17T11:51:25.062Z,29.19
2022-08-17T11:54:32.293Z,29.48
2022-08-17T11:57:02.263Z,29.60
2022-08-17T11:59:59.615Z,29.71
2022-08-17T12:02:48.066Z,29.65
2022-08-17T12:05:32.879Z,29.72
2022-08-17T12:08:09.026Z,29.71
2022-08-17T12:10:48.877Z,30.11
2022-08-17T12:13:19.132Z,30.44
2022-08-17T12:15:50.394Z,30.26
2022-08-17T12:18:22.949Z,29.66
2022-08-17T12:21:15.444Z,29.21
2022-08-17T12:23:56.025Z,28.84
2022-08-17T12:26:27.393Z,28.94
2022-08-17T12:29:01.143Z,28.78
2022-08-17T12:31:34.609Z,28.74
2022-08-17T12:34:03.969Z,28.47
2022-08-17T12:36:34.539Z,28.59
2022-08-17T12:39:13.847Z,28.38
2022-08-17T12:41:45.869Z,28.18
2022-08-17T12:44:17.791Z,28.19
2022-08-17T12:46:55.979Z,28.28
2022-08-17T12:49:30.572Z,28.50
2022-08-17T12:52:14.482Z,28.64
2022-08-17T12:54:48.317Z,29.13
2022-08-17T12:57:19.891Z,29.21
2022-08-17T12:59:54.295Z,29.13
2022-08-17T13:02:29.716Z,29.39
2022-08-17T13:04:59.693Z,28.78
2022-08-17T13:07:32.689Z,28.77
2022-08-17T13:10:00.663Z,28.76
2022-08-17T13:12:31.161Z,29.13
2022-08-17T13:14:59.792Z,29.23
2022-08-17T13:17:31.246Z,29.56
2022-08-17T13:19:59.697Z,29.60
2022-08-17T13:22:30.536Z,30.13
2022-08-17T13:25:03.588Z,30.34
2022-08-17T13:27:32.807Z,30.49
2022-08-17T13:30:03.362Z,30.86
2022-08-17T13:32:40.435Z,30.46
2022-08-17T13:35:50.259Z,29.55
2022-08-17T13:38:40.457Z,29.48
2022-08-17T13:41:08.826Z,29.95
2022-08-17T13:43:44.537Z,29.80
2022-08-17T13:46:21.024Z,29.56
2022-08-17T13:48:59.847Z,29.17
2022-08-17T13:51:34.223Z,28.84
2022-08-17T13:54:21.653Z,28.52
2022-08-17T13:56:58.628Z,28.45
2022-08-17T13:59:52.694Z,28.41
2022-08-17T14:02:20.915Z,28.57
2022-08-17T14:04:50.214Z,28.81
2022-08-17T14:07:33.719Z,29.24
2022-08-17T14:10:08.728Z,29.50
2022-08-17T14:12:39.084Z,29.34
2022-08-17T14:15:08.694Z,29.78
2022-08-17T14:17:38.853Z,30.15
2022-08-17T14:20:09.477Z,30.23
2022-08-17T14:22:39.837Z,30.78
2022-08-17T14:25:12.182Z,30.72
2022-08-17T14:27:41.801Z,30.95
2022-08-17T14:30:23.339Z,31.49
2022-08-17T14:32:51.973Z,31.82
2022-08-17T14:35:22.214Z,32.25
2022-08-17T14:37:50.615Z,32.23
2022-08-17T14:40:26.783Z,32.02
2022-08-17T14:42:56.241Z,31.83
2022-08-17T14:45:29.881Z,31.54
2022-08-17T14:48:01.161Z,31.01
2022-08-17T14:50:28.829Z,30.79
2022-08-17T14:52:57.874Z,30.66
2022-08-17T14:55:27.551Z,30.51
2022-08-17T14:57:55.225Z,30.20
2022-08-17T15:00:23.578Z,30.11
2022-08-17T15:02:53.686Z,30.21
2022-08-17T15:05:22.749Z,30.30
2022-08-17T15:07:50.506Z,30.25
2022-08-17T15:10:18.521Z,30.10
2022-08-17T15:12:47.564Z,30.09
2022-08-17T15:15:17.548Z,29.90
2022-08-17T15:17:54.781Z,29.80
2022-08-17T15:20:25.017Z,29.98
2022-08-17T15:22:55.100Z,29.68
2022-08-17T15:25:23.532Z,29.92
2022-08-17T15:27:52.781Z,29.96
2022-08-17T15:30:21.561Z,30.01
2022-08-17T15:32:51.132Z,29.92
2022-08-17T15:35:26.870Z,29.88
2022-08-17T15:37:56.897Z,29.89
2022-08-17T15:40:25.010Z,29.92
2022-08-17T15:42:53.969Z,29.69
2022-08-17T15:45:26.317Z,29.53
2022-08-17T15:47:54.119Z,29.30
2022-08-17T15:50:22.130Z,29.27
2022-08-17T15:52:55.779Z,29.26
2022-08-17T15:55:24.378Z,29.30
2022-08-17T15:57:53.071Z,29.22
2022-08-17T16:00:24.120Z,29.07
2022-08-17T16:03:45.965Z,29.04
2022-08-17T16:05:41.098Z,29.02
2022-08-17T16:08:10.848Z,28.95
2022-08-17T16:10:38.512Z,28.91
2022-08-17T16:13:06.228Z,28.99
2022-08-17T16:15:56.696Z,28.80
2022-08-17T16:18:26.532Z,28.98
2022-08-17T16:20:54.908Z,29.04
2022-08-17T16:23:22.643Z,29.08
2022-08-17T16:25:53.559Z,28.99
2022-08-17T16:28:21.818Z,29.13
2022-08-17T16:30:50.789Z,29.29
2022-08-17T16:33:18.566Z,29.42
2022-08-17T16:35:46.245Z,29.67
2022-08-17T16:38:13.978Z,29.77
2022-08-17T16:40:42.409Z,29.57
2022-08-17T16:43:11.913Z,29.69
2022-08-17T16:45:40.655Z,29.44
2022-08-17T16:48:11.801Z,29.37
2022-08-17T16:50:40.256Z,29.36
2022-08-17T16:53:10.470Z,29.27
2022-08-17T16:55:39.239Z,29.25
2022-08-17T16:58:08.808Z,29.17
2022-08-17T17:00:37.378Z,29.17
2022-08-17T17:03:19.432Z,29.10
2022-08-17T17:05:58.395Z,28.99
2022-08-17T17:08:31.285Z,28.90
2022-08-17T17:11:04.094Z,28.91
2022-08-17T17:13:44.439Z,28.90
2022-08-17T17:16:21.576Z,28.69
2022-08-17T17:19:04.411Z,28.69
2022-08-17T17:21:40.295Z,28.78
2022-08-17T17:24:12.595Z,28.75
2022-08-17T17:26:52.418Z,28.70
2022-08-17T17:29:35.796Z,28.64
2022-08-17T17:32:22.426Z,28.64
2022-08-17T17:34:58.728Z,28.43
2022-08-17T17:37:33.065Z,28.40
2022-08-17T17:40:06.054Z,28.40
2022-08-17T17:42:33.916Z,28.33
2022-08-17T17:45:07.836Z,28.24
2022-08-17T17:47:37.315Z,28.14
2022-08-17T17:50:08.049Z,28.06
2022-08-17T17:52:47.404Z,27.92
2022-08-17T17:55:26.217Z,27.84
2022-08-17T17:58:03.616Z,27.73
2022-08-17T18:00:38.823Z,27.61
2022-08-17T18:03:21.954Z,27.51
2022-08-17T18:06:04.920Z,27.47
2022-08-17T18:08:48.947Z,27.42
2022-08-17T18:11:45.189Z,27.34
2022-08-17T18:14:27.290Z,27.22
2022-08-17T18:16:58.952Z,27.15
2022-08-17T18:19:28.713Z,27.03
2022-08-17T18:22:07.084Z,26.91
2022-08-17T18:24:38.609Z,26.83
2022-08-17T18:27:20.611Z,26.66
2022-08-17T18:29:49.397Z,26.55
2022-08-17T18:32:28.756Z,26.44
2022-08-17T18:34:59.290Z,26.32
2022-08-17T18:37:44.999Z,26.23
2022-08-17T18:40:35.089Z,26.17
2022-08-17T18:43:07.952Z,26.11
2022-08-17T18:45:40.757Z,26.05
2022-08-17T18:48:28.173Z,25.99
2022-08-17T18:50:58.719Z,25.90
2022-08-17T18:53:38.634Z,25.82
2022-08-17T18:56:30.568Z,25.73
2022-08-17T18:59:23.565Z,25.63
2022-08-17T19:02:32.447Z,25.58
2022-08-17T19:05:13.198Z,25.53
2022-08-17T19:07:43.454Z,25.48
2022-08-17T19:10:25.089Z,25.43
2022-08-17T19:13:00.708Z,25.38
2022-08-17T19:15:39.488Z,25.32
2022-08-17T19:18:15.972Z,25.24
2022-08-17T19:20:48.565Z,25.23
2022-08-17T19:23:22.096Z,25.21
2022-08-17T19:25:53.953Z,25.19
2022-08-17T19:28:25.761Z,25.14
2022-08-17T19:30:58.345Z,25.07
2022-08-17T19:33:27.407Z,25.02
2022-08-17T19:36:02.179Z,25.03
2022-08-17T19:38:48.154Z,25.04
2022-08-17T19:41:24.281Z,25.03
2022-08-17T19:44:03.509Z,24.99
2022-08-17T19:46:43.078Z,24.94
2022-08-17T19:49:34.470Z,24.89
2022-08-17T19:52:28.830Z,24.82
2022-08-17T19:55:03.488Z,24.76
2022-08-17T19:57:44.956Z,24.73
2022-08-17T20:00:16.952Z,24.75
2022-08-17T20:02:55.210Z,24.71
2022-08-17T20:05:28.041Z,24.69
2022-08-17T20:07:58.962Z,24.71
2022-08-17T20:10:48.084Z,24.71
2022-08-17T20:13:33.515Z,24.75
2022-08-17T20:16:02.221Z,24.73
2022-08-17T20:18:50.425Z,24.67
2022-08-17T20:21:20.902Z,24.64
2022-08-17T20:23:54.210Z,24.65
2022-08-17T20:26:26.317Z,24.60
2022-08-17T20:29:36.795Z,24.53
2022-08-17T20:32:16.081Z,24.49
2022-08-17T20:34:47.447Z,24.45
2022-08-17T20:37:31.819Z,24.40
2022-08-17T20:40:24.117Z,24.36
2022-08-17T20:42:51.732Z,24.32
2022-08-17T20:45:54.990Z,24.28
2022-08-17T20:48:37.951Z,24.23
2022-08-17T20:51:20.125Z,24.17
2022-08-17T20:54:23.349Z,24.10
2022-08-17T20:56:56.230Z,24.08
2022-08-17T21:00:13.722Z,24.18
2022-08-17T21:02:44.575Z,24.13
2022-08-17T21:05:34.532Z,24.14
2022-08-17T21:08:14.108Z,24.09
2022-08-17T21:10:46.927Z,24.13
2022-08-17T21:14:01.756Z,24.36
2022-08-17T21:16:38.670Z,24.30
2022-08-17T21:19:22.561Z,24.25
2022-08-17T21:22:01.177Z,24.25
2022-08-17T21:24:41.431Z,24.16
2022-08-17T21:27:23.442Z,24.05
2022-08-17T21:30:14.543Z,23.99
2022-08-17T21:32:45.891Z,23.96
2022-08-17T21:35:31.070Z,23.92
2022-08-17T21:38:04.885Z,23.95
2022-08-17T21:40:34.800Z,23.95
2022-08-17T21:43:16.884Z,23.92
2022-08-17T21:45:54.385Z,23.89
2022-08-17T21:48:23.880Z,23.84
2022-08-17T21:51:02.229Z,23.78
2022-08-17T21:53:37.461Z,23.72
2022-08-17T21:56:06.087Z,23.66
2022-08-17T21:58:36.689Z,23.62
2022-08-17T22:01:14.575Z,23.58
2022-08-17T22:03:42.851Z,23.62
2022-08-17T22:06:24.017Z,23.60
2022-08-17T22:09:04.384Z,23.60
2022-08-17T22:11:32.466Z,23.56
2022-08-17T22:14:05.106Z,23.55
2022-08-17T22:16:33.796Z,23.58
2022-08-17T22:19:01.595Z,23.59
2022-08-17T22:21:30.554Z,23.63
2022-08-17T22:24:05.008Z,23.45
2022-08-17T22:27:00.223Z,23.42
2022-08-17T22:29:57.406Z,23.38
2022-08-17T22:32:41.924Z,23.32
2022-08-17T22:35:35.468Z,23.31
2022-08-17T22:38:28.664Z,23.21
2022-08-17T22:41:13.496Z,23.20
2022-08-17T22:43:43.672Z,23.11
2022-08-17T22:46:14.878Z,23.08
2022-08-17T22:48:50.076Z,23.15
2022-08-17T22:51:21.612Z,23.13
2022-08-17T22:54:11.506Z,23.00
2022-08-17T22:57:04.388Z,22.96
2022-08-17T22:59:44.261Z,22.86
2022-08-17T23:02:32.864Z,22.80
2022-08-17T23:05:21.838Z,22.71
2022-08-17T23:07:52.874Z,22.66
2022-08-17T23:10:22.028Z,22.59
2022-08-17T23:12:49.658Z,22.56
2022-08-17T23:15:19.110Z,22.52
2022-08-17T23:17:47.676Z,22.51
2022-08-17T23:20:17.429Z,22.55
2022-08-17T23:22:52.026Z,22.47
2022-08-17T23:25:27.935Z,22.47
2022-08-17T23:27:57.463Z,22.60
2022-08-17T23:30:28.374Z,22.59
2022-08-17T23:32:56.915Z,22.61
2022-08-17T23:35:39.011Z,22.57
2022-08-17T23:38:08.874Z,22.59
2022-08-17T23:40:39.768Z,22.58
2022-08-17T23:43:23.720Z,22.52
2022-08-17T23:45:52.754Z,22.53
2022-08-17T23:48:28.533Z,22.48
2022-08-17T23:51:05.742Z,22.44
2022-08-17T23:53:36.194Z,22.39
2022-08-17T23:56:10.493Z,22.41
2022-08-17T23:58:39.352Z,22.41
